Terminal Aerodrome Forecast
Issued by NWS Twin Cities, MN

Home | Current Version | Previous Version | Text Only | Print | Product List | Glossary On
Versions: 1 2 3 4 5 6 7 8 9 10 11 12 13 14 15 16 17 18 19
394
FTUS43 KMPX 071504 AAA
TAFEAU
TAF AMD
KEAU 071504Z 0715/0812 25012KT P6SM BKN025 BKN050 WS010/27040KT
     FM071700 25012G20KT P6SM SCT025 BKN040
     FM072200 27016G23KT 3SM -SHSN OVC025
     FM080400 31016G24KT 2SM -SN BLSN OVC015=

USA.gov is the U.S. government's official web portal to all federal, state and local government web resources and services.